sensor_id;sensor_type;location;lat;lon;timestamp;pressure;altitude;pressure_sealevel;temperature;humidity
70437;BME280;57877;39.750;-104.894;2023-03-03T00:00:04;82620.10;;;7.78;19.63
70437;BME280;57877;39.750;-104.894;2023-03-03T00:02:28;82621.90;;;7.16;19.72
70437;BME280;57877;39.750;-104.894;2023-03-03T00:04:53;82621.56;;;7.65;19.70
70437;BME280;57877;39.750;-104.894;2023-03-03T00:07:19;82622.56;;;7.41;19.76
70437;BME280;57877;39.750;-104.894;2023-03-03T00:09:50;82616.30;;;6.94;20.41
70437;BME280;57877;39.750;-104.894;2023-03-03T00:12:20;82618.11;;;7.03;20.92
70437;BME280;57877;39.750;-104.894;2023-03-03T00:14:46;82618.67;;;6.94;21.63
70437;BME280;57877;39.750;-104.894;2023-03-03T00:17:13;82617.84;;;7.30;21.83
70437;BME280;57877;39.750;-104.894;2023-03-03T00:19:38;82617.29;;;6.14;23.06
70437;BME280;57877;39.750;-104.894;2023-03-03T00:21:56;82614.90;;;6.08;23.77
70437;BME280;57877;39.750;-104.894;2023-03-03T00:24:21;82616.21;;;6.53;23.70
70437;BME280;57877;39.750;-104.894;2023-03-03T00:26:47;82613.36;;;6.48;23.96
70437;BME280;57877;39.750;-104.894;2023-03-03T00:29:23;82612.76;;;7.08;23.48
70437;BME280;57877;39.750;-104.894;2023-03-03T00:31:37;82621.15;;;6.39;23.75
70437;BME280;57877;39.750;-104.894;2023-03-03T00:34:19;82622.11;;;6.69;23.57
70437;BME280;57877;39.750;-104.894;2023-03-03T00:36:35;82626.07;;;6.29;24.08
70437;BME280;57877;39.750;-104.894;2023-03-03T00:41:25;82641.38;;;7.53;23.06
70437;BME280;57877;39.750;-104.894;2023-03-03T00:43:47;82644.54;;;6.50;23.50
70437;BME280;57877;39.750;-104.894;2023-03-03T00:46:16;82640.06;;;6.21;23.67
70437;BME280;57877;39.750;-104.894;2023-03-03T00:48:42;82645.00;;;5.78;24.19
70437;BME280;57877;39.750;-104.894;2023-03-03T00:51:18;82647.17;;;5.78;24.35
70437;BME280;57877;39.750;-104.894;2023-03-03T00:53:30;82648.21;;;5.60;24.59
70437;BME280;57877;39.750;-104.894;2023-03-03T00:55:56;82652.26;;;5.84;24.16
70437;BME280;57877;39.750;-104.894;2023-03-03T00:58:22;82657.17;;;6.35;24.18
70437;BME280;57877;39.750;-104.894;2023-03-03T01:00:48;82660.85;;;6.26;24.08
70437;BME280;57877;39.750;-104.894;2023-03-03T01:03:16;82668.10;;;6.09;24.23
70437;BME280;57877;39.750;-104.894;2023-03-03T01:05:38;82669.36;;;5.97;24.37
70437;BME280;57877;39.750;-104.894;2023-03-03T01:08:05;82675.80;;;5.41;24.95
70437;BME280;57877;39.750;-104.894;2023-03-03T01:10:33;82684.53;;;5.88;24.81
70437;BME280;57877;39.750;-104.894;2023-03-03T01:12:56;82689.02;;;5.76;24.71
70437;BME280;57877;39.750;-104.894;2023-03-03T01:15:21;82692.21;;;5.67;25.12
70437;BME280;57877;39.750;-104.894;2023-03-03T01:17:46;82695.08;;;5.65;25.07
70437;BME280;57877;39.750;-104.894;2023-03-03T01:20:13;82702.58;;;5.78;24.85
70437;BME280;57877;39.750;-104.894;2023-03-03T01:22:37;82709.24;;;6.31;24.26
70437;BME280;57877;39.750;-104.894;2023-03-03T01:25:02;82713.96;;;6.02;24.12
70437;BME280;57877;39.750;-104.894;2023-03-03T01:27:27;82712.31;;;5.89;24.05
70437;BME280;57877;39.750;-104.894;2023-03-03T01:29:52;82705.30;;;6.16;23.99
70437;BME280;57877;39.750;-104.894;2023-03-03T01:32:17;82700.79;;;5.62;24.48
70437;BME280;57877;39.750;-104.894;2023-03-03T01:34:41;82698.86;;;5.70;24.70
70437;BME280;57877;39.750;-104.894;2023-03-03T01:37:07;82705.75;;;5.28;24.69
70437;BME280;57877;39.750;-104.894;2023-03-03T01:39:32;82708.96;;;5.96;24.47
70437;BME280;57877;39.750;-104.894;2023-03-03T01:41:58;82710.74;;;5.76;24.55
70437;BME280;57877;39.750;-104.894;2023-03-03T01:44:23;82711.44;;;5.72;24.48
70437;BME280;57877;39.750;-104.894;2023-03-03T01:46:53;82715.54;;;5.73;24.38
70437;BME280;57877;39.750;-104.894;2023-03-03T01:49:16;82719.23;;;5.42;24.42
70437;BME280;57877;39.750;-104.894;2023-03-03T01:51:45;82717.51;;;5.78;24.41
70437;BME280;57877;39.750;-104.894;2023-03-03T01:54:13;82717.11;;;5.53;24.70
70437;BME280;57877;39.750;-104.894;2023-03-03T01:56:30;82719.18;;;5.47;24.78
70437;BME280;57877;39.750;-104.894;2023-03-03T01:59:03;82721.20;;;5.74;24.50
70437;BME280;57877;39.750;-104.894;2023-03-03T02:01:23;82723.88;;;5.59;24.24
70437;BME280;57877;39.750;-104.894;2023-03-03T02:03:51;82726.34;;;5.47;24.54
70437;BME280;57877;39.750;-104.894;2023-03-03T02:06:13;82728.76;;;5.38;24.34
70437;BME280;57877;39.750;-104.894;2023-03-03T02:08:41;82732.38;;;5.52;24.25
70437;BME280;57877;39.750;-104.894;2023-03-03T02:11:03;82735.55;;;6.05;24.11
70437;BME280;57877;39.750;-104.894;2023-03-03T02:13:27;82736.15;;;5.83;24.05
70437;BME280;57877;39.750;-104.894;2023-03-03T02:15:52;82735.49;;;5.67;23.99
70437;BME280;57877;39.750;-104.894;2023-03-03T02:18:19;82734.98;;;5.69;23.94
70437;BME280;57877;39.750;-104.894;2023-03-03T02:20:52;82736.79;;;5.10;24.50
70437;BME280;57877;39.750;-104.894;2023-03-03T02:23:13;82735.01;;;5.90;24.24
70437;BME280;57877;39.750;-104.894;2023-03-03T02:25:39;82733.58;;;5.49;24.55
70437;BME280;57877;39.750;-104.894;2023-03-03T02:27:59;82733.75;;;5.10;24.95
70437;BME280;57877;39.750;-104.894;2023-03-03T02:30:24;82732.55;;;5.07;24.77
70437;BME280;57877;39.750;-104.894;2023-03-03T02:32:49;82731.41;;;5.58;24.73
70437;BME280;57877;39.750;-104.894;2023-03-03T02:37:39;82731.80;;;5.26;24.84
70437;BME280;57877;39.750;-104.894;2023-03-03T02:40:07;82731.86;;;5.55;24.54
70437;BME280;57877;39.750;-104.894;2023-03-03T02:42:30;82731.65;;;4.60;25.01
70437;BME280;57877;39.750;-104.894;2023-03-03T02:44:55;82731.73;;;5.20;24.98
70437;BME280;57877;39.750;-104.894;2023-03-03T02:47:19;82732.09;;;4.85;24.97
70437;BME280;57877;39.750;-104.894;2023-03-03T02:49:45;82732.65;;;4.90;25.05
70437;BME280;57877;39.750;-104.894;2023-03-03T02:52:12;82733.27;;;4.73;25.27
70437;BME280;57877;39.750;-104.894;2023-03-03T02:54:38;82744.40;;;4.45;25.64
70437;BME280;57877;39.750;-104.894;2023-03-03T02:57:04;82748.11;;;4.53;25.74
70437;BME280;57877;39.750;-104.894;2023-03-03T02:59:30;82746.96;;;4.58;25.54
70437;BME280;57877;39.750;-104.894;2023-03-03T03:01:55;82747.49;;;4.32;25.80
70437;BME280;57877;39.750;-104.894;2023-03-03T03:04:21;82745.72;;;4.77;25.70
70437;BME280;57877;39.750;-104.894;2023-03-03T03:06:46;82749.18;;;4.40;25.84
70437;BME280;57877;39.750;-104.894;2023-03-03T03:09:11;82750.47;;;4.20;25.94
70437;BME280;57877;39.750;-104.894;2023-03-03T03:11:36;82753.94;;;4.25;26.09
70437;BME280;57877;39.750;-104.894;2023-03-03T03:14:01;82755.09;;;4.25;26.24
70437;BME280;57877;39.750;-104.894;2023-03-03T03:16:26;82759.17;;;4.40;25.66
70437;BME280;57877;39.750;-104.894;2023-03-03T03:18:51;82759.72;;;4.78;25.62
70437;BME280;57877;39.750;-104.894;2023-03-03T03:21:17;82760.15;;;4.31;25.92
70437;BME280;57877;39.750;-104.894;2023-03-03T03:23:41;82761.81;;;4.78;25.58
70437;BME280;57877;39.750;-104.894;2023-03-03T03:26:06;82761.43;;;4.38;25.67
70437;BME280;57877;39.750;-104.894;2023-03-03T03:28:32;82759.72;;;4.36;25.81
70437;BME280;57877;39.750;-104.894;2023-03-03T03:30:57;82760.09;;;4.43;25.63
70437;BME280;57877;39.750;-104.894;2023-03-03T03:33:22;82760.68;;;4.45;25.44
70437;BME280;57877;39.750;-104.894;2023-03-03T03:35:47;82757.52;;;4.21;25.05
70437;BME280;57877;39.750;-104.894;2023-03-03T03:38:13;82755.86;;;3.86;24.78
70437;BME280;57877;39.750;-104.894;2023-03-03T03:40:37;82757.09;;;4.59;24.74
70437;BME280;57877;39.750;-104.894;2023-03-03T03:43:02;82756.09;;;4.82;24.32
70437;BME280;57877;39.750;-104.894;2023-03-03T03:45:27;82752.57;;;4.28;24.37
70437;BME280;57877;39.750;-104.894;2023-03-03T03:47:52;82754.68;;;3.73;25.08
70437;BME280;57877;39.750;-104.894;2023-03-03T03:50:17;82753.95;;;4.20;25.05
70437;BME280;57877;39.750;-104.894;2023-03-03T03:52:42;82749.42;;;4.52;25.18
70437;BME280;57877;39.750;-104.894;2023-03-03T03:55:08;82750.49;;;4.25;25.17
70437;BME280;57877;39.750;-104.894;2023-03-03T03:57:32;82744.79;;;4.43;25.58
70437;BME280;57877;39.750;-104.894;2023-03-03T03:59:59;82737.69;;;4.14;25.94
70437;BME280;57877;39.750;-104.894;2023-03-03T04:02:22;82733.23;;;4.22;26.42
70437;BME280;57877;39.750;-104.894;2023-03-03T04:04:47;82729.64;;;3.96;27.07
70437;BME280;57877;39.750;-104.894;2023-03-03T04:07:13;82726.43;;;3.92;27.15
70437;BME280;57877;39.750;-104.894;2023-03-03T04:09:38;82723.24;;;3.81;27.22
70437;BME280;57877;39.750;-104.894;2023-03-03T04:12:03;82719.24;;;3.87;27.23
70437;BME280;57877;39.750;-104.894;2023-03-03T04:14:27;82713.69;;;3.85;27.37
70437;BME280;57877;39.750;-104.894;2023-03-03T04:16:53;82708.99;;;3.96;27.36
70437;BME280;57877;39.750;-104.894;2023-03-03T04:19:18;82707.45;;;3.88;27.45
70437;BME280;57877;39.750;-104.894;2023-03-03T04:21:43;82704.90;;;4.11;27.18
70437;BME280;57877;39.750;-104.894;2023-03-03T04:24:08;82702.10;;;4.11;27.29
70437;BME280;57877;39.750;-104.894;2023-03-03T04:26:33;82701.92;;;3.91;27.25
70437;BME280;57877;39.750;-104.894;2023-03-03T04:28:58;82697.86;;;4.02;27.50
70437;BME280;57877;39.750;-104.894;2023-03-03T04:31:23;82695.38;;;4.11;27.56
70437;BME280;57877;39.750;-104.894;2023-03-03T04:33:48;82687.81;;;3.47;28.37
70437;BME280;57877;39.750;-104.894;2023-03-03T04:36:14;82693.17;;;3.35;28.42
70437;BME280;57877;39.750;-104.894;2023-03-03T04:38:39;82697.41;;;3.49;28.27
70437;BME280;57877;39.750;-104.894;2023-03-03T04:41:05;82699.58;;;3.35;28.42
70437;BME280;57877;39.750;-104.894;2023-03-03T04:43:31;82700.18;;;3.53;28.22
70437;BME280;57877;39.750;-104.894;2023-03-03T04:45:56;82704.65;;;3.70;28.04
70437;BME280;57877;39.750;-104.894;2023-03-03T04:48:21;82702.02;;;3.89;27.89
70437;BME280;57877;39.750;-104.894;2023-03-03T04:50:46;82698.27;;;3.93;27.90
70437;BME280;57877;39.750;-104.894;2023-03-03T04:53:11;82690.08;;;3.37;28.77
70437;BME280;57877;39.750;-104.894;2023-03-03T04:55:37;82685.54;;;3.48;28.61
70437;BME280;57877;39.750;-104.894;2023-03-03T04:58:01;82684.33;;;3.32;28.74
70437;BME280;57877;39.750;-104.894;2023-03-03T05:00:26;82679.89;;;3.50;29.07
70437;BME280;57877;39.750;-104.894;2023-03-03T05:02:51;82671.48;;;3.43;28.70
70437;BME280;57877;39.750;-104.894;2023-03-03T05:05:16;82666.30;;;3.57;28.49
70437;BME280;57877;39.750;-104.894;2023-03-03T05:07:41;82659.51;;;3.37;29.22
70437;BME280;57877;39.750;-104.894;2023-03-03T05:10:08;82661.06;;;2.75;30.21
70437;BME280;57877;39.750;-104.894;2023-03-03T05:12:33;82658.85;;;2.56;30.16
70437;BME280;57877;39.750;-104.894;2023-03-03T05:14:57;82656.34;;;2.33;30.53
70437;BME280;57877;39.750;-104.894;2023-03-03T05:17:23;82658.54;;;2.57;30.16
70437;BME280;57877;39.750;-104.894;2023-03-03T05:19:48;82655.60;;;2.42;30.33
70437;BME280;57877;39.750;-104.894;2023-03-03T05:22:14;82656.85;;;2.40;30.19
70437;BME280;57877;39.750;-104.894;2023-03-03T05:24:39;82660.54;;;2.34;30.33
70437;BME280;57877;39.750;-104.894;2023-03-03T05:27:05;82664.16;;;2.53;30.04
70437;BME280;57877;39.750;-104.894;2023-03-03T05:29:29;82664.35;;;2.12;30.35
70437;BME280;57877;39.750;-104.894;2023-03-03T05:31:54;82663.11;;;2.05;30.49
70437;BME280;57877;39.750;-104.894;2023-03-03T05:34:19;82664.37;;;1.96;30.60
70437;BME280;57877;39.750;-104.894;2023-03-03T05:36:44;82663.24;;;2.20;30.45
70437;BME280;57877;39.750;-104.894;2023-03-03T05:39:09;82666.42;;;2.12;30.18
70437;BME280;57877;39.750;-104.894;2023-03-03T05:41:34;82668.91;;;1.93;30.18
70437;BME280;57877;39.750;-104.894;2023-03-03T05:43:59;82670.09;;;2.21;29.60
70437;BME280;57877;39.750;-104.894;2023-03-03T05:46:24;82670.28;;;2.33;29.16
70437;BME280;57877;39.750;-104.894;2023-03-03T05:48:49;82671.86;;;2.72;29.00
70437;BME280;57877;39.750;-104.894;2023-03-03T05:51:14;82670.28;;;2.31;29.06
70437;BME280;57877;39.750;-104.894;2023-03-03T05:53:39;82671.56;;;2.46;28.95
70437;BME280;57877;39.750;-104.894;2023-03-03T05:56:05;82674.01;;;2.34;28.84
70437;BME280;57877;39.750;-104.894;2023-03-03T05:58:29;82672.24;;;2.46;28.71
70437;BME280;57877;39.750;-104.894;2023-03-03T06:00:54;82669.45;;;2.82;28.54
70437;BME280;57877;39.750;-104.894;2023-03-03T06:03:19;82666.49;;;2.83;28.34
70437;BME280;57877;39.750;-104.894;2023-03-03T06:05:44;82666.12;;;3.01;28.10
70437;BME280;57877;39.750;-104.894;2023-03-03T06:08:09;82657.34;;;3.40;27.87
70437;BME280;57877;39.750;-104.894;2023-03-03T06:10:34;82654.72;;;3.11;27.99
70437;BME280;57877;39.750;-104.894;2023-03-03T06:13:00;82655.97;;;2.88;28.26
70437;BME280;57877;39.750;-104.894;2023-03-03T06:15:25;82659.13;;;2.82;28.14
70437;BME280;57877;39.750;-104.894;2023-03-03T06:17:50;82658.34;;;2.80;28.24
70437;BME280;57877;39.750;-104.894;2023-03-03T06:20:15;82649.56;;;2.40;28.66
70437;BME280;57877;39.750;-104.894;2023-03-03T06:22:40;82643.02;;;2.29;28.91
70437;BME280;57877;39.750;-104.894;2023-03-03T06:25:05;82637.32;;;2.53;29.13
70437;BME280;57877;39.750;-104.894;2023-03-03T06:27:30;82637.96;;;1.85;29.39
70437;BME280;57877;39.750;-104.894;2023-03-03T06:29:55;82639.34;;;2.08;29.19
70437;BME280;57877;39.750;-104.894;2023-03-03T06:32:20;82641.13;;;2.13;29.02
70437;BME280;57877;39.750;-104.894;2023-03-03T06:34:45;82641.19;;;1.85;29.33
70437;BME280;57877;39.750;-104.894;2023-03-03T06:37:10;82643.10;;;1.82;29.37
70437;BME280;57877;39.750;-104.894;2023-03-03T06:39:35;82637.62;;;1.98;29.23
70437;BME280;57877;39.750;-104.894;2023-03-03T06:42:00;82633.38;;;2.10;29.53
70437;BME280;57877;39.750;-104.894;2023-03-03T06:44:25;82633.18;;;1.40;30.25
70437;BME280;57877;39.750;-104.894;2023-03-03T06:46:50;82632.18;;;1.55;30.22
70437;BME280;57877;39.750;-104.894;2023-03-03T06:49:15;82628.77;;;1.29;30.57
70437;BME280;57877;39.750;-104.894;2023-03-03T06:51:41;82630.64;;;1.75;30.20
70437;BME280;57877;39.750;-104.894;2023-03-03T06:54:11;82632.22;;;1.45;30.22
70437;BME280;57877;39.750;-104.894;2023-03-03T06:56:34;82631.07;;;1.84;30.05
70437;BME280;57877;39.750;-104.894;2023-03-03T06:58:56;82629.26;;;1.73;30.12
70437;BME280;57877;39.750;-104.894;2023-03-03T07:01:20;82624.77;;;1.44;30.47
70437;BME280;57877;39.750;-104.894;2023-03-03T07:03:46;82623.71;;;1.57;30.33
70437;BME280;57877;39.750;-104.894;2023-03-03T07:06:20;82620.05;;;1.51;30.51
70437;BME280;57877;39.750;-104.894;2023-03-03T07:08:36;82621.04;;;1.55;30.41
70437;BME280;57877;39.750;-104.894;2023-03-03T07:11:10;82618.42;;;1.81;30.07
70437;BME280;57877;39.750;-104.894;2023-03-03T07:13:30;82613.97;;;1.77;29.78
70437;BME280;57877;39.750;-104.894;2023-03-03T07:15:54;82610.34;;;1.26;30.66
70437;BME280;57877;39.750;-104.894;2023-03-03T07:18:29;82607.99;;;1.87;29.71
70437;BME280;57877;39.750;-104.894;2023-03-03T07:20:43;82608.87;;;1.36;30.32
70437;BME280;57877;39.750;-104.894;2023-03-03T07:23:17;82610.30;;;1.94;29.80
70437;BME280;57877;39.750;-104.894;2023-03-03T07:25:34;82611.33;;;2.11;29.68
70437;BME280;57877;39.750;-104.894;2023-03-03T07:28:03;82610.37;;;1.79;29.64
70437;BME280;57877;39.750;-104.894;2023-03-03T07:30:26;82609.13;;;1.64;29.92
70437;BME280;57877;39.750;-104.894;2023-03-03T07:32:48;82606.34;;;1.72;30.24
70437;BME280;57877;39.750;-104.894;2023-03-03T07:35:23;82605.90;;;1.77;30.23
70437;BME280;57877;39.750;-104.894;2023-03-03T07:37:39;82605.04;;;1.59;30.44
70437;BME280;57877;39.750;-104.894;2023-03-03T07:42:35;82601.87;;;1.44;30.89
70437;BME280;57877;39.750;-104.894;2023-03-03T07:44:55;82598.27;;;1.48;30.78
70437;BME280;57877;39.750;-104.894;2023-03-03T07:47:23;82592.41;;;1.69;30.49
70437;BME280;57877;39.750;-104.894;2023-03-03T07:49:44;82591.86;;;1.81;30.26
70437;BME280;57877;39.750;-104.894;2023-03-03T07:52:19;82588.65;;;1.78;30.41
70437;BME280;57877;39.750;-104.894;2023-03-03T07:54:38;82593.10;;;1.36;30.62
70437;BME280;57877;39.750;-104.894;2023-03-03T07:57:06;82593.79;;;1.68;30.62
70437;BME280;57877;39.750;-104.894;2023-03-03T07:59:25;82594.34;;;1.75;30.30
70437;BME280;57877;39.750;-104.894;2023-03-03T08:01:52;82593.82;;;1.26;30.62
70437;BME280;57877;39.750;-104.894;2023-03-03T08:04:20;82590.76;;;1.54;30.59
70437;BME280;57877;39.750;-104.894;2023-03-03T08:06:46;82593.08;;;1.35;30.95
70437;BME280;57877;39.750;-104.894;2023-03-03T08:11:29;82592.98;;;1.27;31.59
70437;BME280;57877;39.750;-104.894;2023-03-03T08:13:55;82596.61;;;0.74;31.59
70437;BME280;57877;39.750;-104.894;2023-03-03T08:16:27;82600.06;;;0.88;32.19
70437;BME280;57877;39.750;-104.894;2023-03-03T08:18:46;82604.83;;;0.67;31.90
70437;BME280;57877;39.750;-104.894;2023-03-03T08:21:13;82609.18;;;0.78;31.81
70437;BME280;57877;39.750;-104.894;2023-03-03T08:23:34;82614.65;;;0.96;31.51
70437;BME280;57877;39.750;-104.894;2023-03-03T08:25:59;82619.11;;;0.82;31.36
70437;BME280;57877;39.750;-104.894;2023-03-03T08:28:25;82619.50;;;1.17;31.43
70437;BME280;57877;39.750;-104.894;2023-03-03T08:30:50;82616.11;;;1.13;31.41
70437;BME280;57877;39.750;-104.894;2023-03-03T08:33:16;82619.01;;;0.60;31.41
70437;BME280;57877;39.750;-104.894;2023-03-03T08:35:40;82618.64;;;0.52;32.06
70437;BME280;57877;39.750;-104.894;2023-03-03T08:38:06;82617.03;;;0.27;31.93
70437;BME280;57877;39.750;-104.894;2023-03-03T08:40:31;82619.63;;;0.57;31.73
70437;BME280;57877;39.750;-104.894;2023-03-03T08:42:55;82619.34;;;0.63;31.95
70437;BME280;57877;39.750;-104.894;2023-03-03T08:45:20;82616.41;;;0.04;32.68
70437;BME280;57877;39.750;-104.894;2023-03-03T08:47:45;82612.07;;;0.01;32.58
70437;BME280;57877;39.750;-104.894;2023-03-03T08:50:10;82610.23;;;0.13;32.22
70437;BME280;57877;39.750;-104.894;2023-03-03T08:52:35;82604.68;;;0.12;32.38
70437;BME280;57877;39.750;-104.894;2023-03-03T08:55:00;82601.17;;;0.42;32.04
70437;BME280;57877;39.750;-104.894;2023-03-03T08:57:25;82601.85;;;0.46;32.00
70437;BME280;57877;39.750;-104.894;2023-03-03T08:59:50;82593.33;;;0.30;32.03
70437;BME280;57877;39.750;-104.894;2023-03-03T09:02:15;82587.36;;;-0.44;33.26
70437;BME280;57877;39.750;-104.894;2023-03-03T09:04:41;82581.10;;;-0.02;33.13
70437;BME280;57877;39.750;-104.894;2023-03-03T09:07:06;82582.67;;;-0.19;33.09
70437;BME280;57877;39.750;-104.894;2023-03-03T09:09:31;82579.06;;;-0.26;33.10
70437;BME280;57877;39.750;-104.894;2023-03-03T09:11:58;82580.18;;;-0.44;33.27
70437;BME280;57877;39.750;-104.894;2023-03-03T09:14:21;82580.00;;;-0.37;33.73
70437;BME280;57877;39.750;-104.894;2023-03-03T09:16:49;82580.36;;;-0.65;34.35
70437;BME280;57877;39.750;-104.894;2023-03-03T09:19:17;82580.35;;;-0.65;34.19
70437;BME280;57877;39.750;-104.894;2023-03-03T09:21:36;82582.85;;;-0.37;33.25
70437;BME280;57877;39.750;-104.894;2023-03-03T09:24:01;82582.16;;;-0.15;32.96
70437;BME280;57877;39.750;-104.894;2023-03-03T09:26:29;82584.25;;;-0.40;32.98
70437;BME280;57877;39.750;-104.894;2023-03-03T09:28:52;82587.04;;;-0.70;34.34
70437;BME280;57877;39.750;-104.894;2023-03-03T09:31:24;82593.45;;;-0.59;34.10
70437;BME280;57877;39.750;-104.894;2023-03-03T09:33:44;82594.98;;;-0.69;34.40
70437;BME280;57877;39.750;-104.894;2023-03-03T09:36:16;82596.18;;;-1.16;35.50
70437;BME280;57877;39.750;-104.894;2023-03-03T09:38:34;82598.02;;;-1.05;35.51
70437;BME280;57877;39.750;-104.894;2023-03-03T09:43:29;82600.68;;;-1.02;34.96
70437;BME280;57877;39.750;-104.894;2023-03-03T09:45:56;82605.36;;;-1.18;35.00
70437;BME280;57877;39.750;-104.894;2023-03-03T09:50:44;82607.52;;;-0.53;33.98
70437;BME280;57877;39.750;-104.894;2023-03-03T09:53:13;82607.18;;;-0.65;33.94
70437;BME280;57877;39.750;-104.894;2023-03-03T09:55:36;82604.63;;;-0.60;33.78
70437;BME280;57877;39.750;-104.894;2023-03-03T09:58:03;82604.89;;;-0.71;33.63
70437;BME280;57877;39.750;-104.894;2023-03-03T10:00:28;82603.29;;;-0.32;33.13
70437;BME280;57877;39.750;-104.894;2023-03-03T10:02:54;82600.66;;;-0.78;33.18
70437;BME280;57877;39.750;-104.894;2023-03-03T10:05:16;82596.49;;;-0.39;32.81
70437;BME280;57877;39.750;-104.894;2023-03-03T10:07:41;82586.50;;;-0.60;33.09
70437;BME280;57877;39.750;-104.894;2023-03-03T10:10:12;82582.48;;;-0.17;32.55
70437;BME280;57877;39.750;-104.894;2023-03-03T10:12:27;82582.52;;;0.25;32.02
70437;BME280;57877;39.750;-104.894;2023-03-03T10:15:00;82584.41;;;0.13;31.85
70437;BME280;57877;39.750;-104.894;2023-03-03T10:17:24;82586.01;;;0.22;31.50
70437;BME280;57877;39.750;-104.894;2023-03-03T10:19:40;82585.30;;;-0.08;32.10
70437;BME280;57877;39.750;-104.894;2023-03-03T10:22:15;82582.76;;;-0.35;32.02
70437;BME280;57877;39.750;-104.894;2023-03-03T10:24:30;82587.36;;;0.06;31.85
70437;BME280;57877;39.750;-104.894;2023-03-03T10:27:04;82591.97;;;0.24;32.04
70437;BME280;57877;39.750;-104.894;2023-03-03T10:29:26;82597.12;;;-0.10;31.70
70437;BME280;57877;39.750;-104.894;2023-03-03T10:31:54;82598.31;;;-0.04;31.51
70437;BME280;57877;39.750;-104.894;2023-03-03T10:34:20;82601.16;;;0.05;31.45
70437;BME280;57877;39.750;-104.894;2023-03-03T10:36:43;82604.21;;;-0.17;31.60
70437;BME280;57877;39.750;-104.894;2023-03-03T10:41:38;82624.75;;;0.05;32.00
70437;BME280;57877;39.750;-104.894;2023-03-03T10:43:58;82625.26;;;-0.49;32.29
70437;BME280;57877;39.750;-104.894;2023-03-03T10:46:22;82623.45;;;-0.61;32.34
70437;BME280;57877;39.750;-104.894;2023-03-03T10:48:55;82622.15;;;-0.01;32.21
70437;BME280;57877;39.750;-104.894;2023-03-03T10:51:14;82617.59;;;-0.51;32.14
70437;BME280;57877;39.750;-104.894;2023-03-03T10:53:36;82619.10;;;-0.27;32.21
70437;BME280;57877;39.750;-104.894;2023-03-03T10:56:10;82616.71;;;0.05;32.05
70437;BME280;57877;39.750;-104.894;2023-03-03T10:58:33;82620.72;;;-0.51;32.21
70437;BME280;57877;39.750;-104.894;2023-03-03T11:00:53;82624.38;;;-0.49;32.02
70437;BME280;57877;39.750;-104.894;2023-03-03T11:05:42;82629.66;;;0.04;31.84
70437;BME280;57877;39.750;-104.894;2023-03-03T11:08:04;82633.18;;;-0.50;32.49
70437;BME280;57877;39.750;-104.894;2023-03-03T11:10:37;82641.33;;;-1.05;33.18
70437;BME280;57877;39.750;-104.894;2023-03-03T11:13:00;82642.33;;;-1.29;33.79
70437;BME280;57877;39.750;-104.894;2023-03-03T11:15:26;82638.83;;;-1.36;33.80
70437;BME280;57877;39.750;-104.894;2023-03-03T11:17:52;82638.81;;;-0.88;33.49
70437;BME280;57877;39.750;-104.894;2023-03-03T11:20:12;82635.66;;;-0.79;33.40
70437;BME280;57877;39.750;-104.894;2023-03-03T11:22:38;82632.33;;;-0.58;32.87
70437;BME280;57877;39.750;-104.894;2023-03-03T11:25:03;82624.96;;;-0.80;32.88
70437;BME280;57877;39.750;-104.894;2023-03-03T11:27:37;82626.39;;;-0.98;33.37
70437;BME280;57877;39.750;-104.894;2023-03-03T11:29:57;82625.60;;;-0.71;33.11
70437;BME280;57877;39.750;-104.894;2023-03-03T11:32:25;82623.84;;;-0.59;32.88
70437;BME280;57877;39.750;-104.894;2023-03-03T11:34:47;82625.23;;;-0.45;32.62
70437;BME280;57877;39.750;-104.894;2023-03-03T11:37:07;82624.86;;;-0.38;32.52
70437;BME280;57877;39.750;-104.894;2023-03-03T11:39:28;82625.71;;;-0.15;32.13
70437;BME280;57877;39.750;-104.894;2023-03-03T11:42:02;82623.18;;;0.25;31.98
70437;BME280;57877;39.750;-104.894;2023-03-03T11:44:23;82619.87;;;-0.09;32.27
70437;BME280;57877;39.750;-104.894;2023-03-03T11:46:46;82625.56;;;-0.93;33.83
70437;BME280;57877;39.750;-104.894;2023-03-03T11:49:14;82628.36;;;0.01;32.44
70437;BME280;57877;39.750;-104.894;2023-03-03T11:51:43;82629.61;;;-0.04;32.47
70437;BME280;57877;39.750;-104.894;2023-03-03T11:54:03;82637.55;;;0.02;32.22
70437;BME280;57877;39.750;-104.894;2023-03-03T11:56:27;82641.53;;;-0.06;32.07
70437;BME280;57877;39.750;-104.894;2023-03-03T11:58:59;82640.53;;;0.18;31.67
70437;BME280;57877;39.750;-104.894;2023-03-03T12:01:21;82648.60;;;0.08;31.64
70437;BME280;57877;39.750;-104.894;2023-03-03T12:03:41;82650.79;;;0.45;31.15
70437;BME280;57877;39.750;-104.894;2023-03-03T12:06:12;82652.42;;;0.39;30.84
70437;BME280;57877;39.750;-104.894;2023-03-03T12:08:38;82657.62;;;0.48;30.80
70437;BME280;57877;39.750;-104.894;2023-03-03T12:10:59;82659.83;;;0.24;30.73
70437;BME280;57877;39.750;-104.894;2023-03-03T12:13:24;82662.50;;;0.55;30.50
70437;BME280;57877;39.750;-104.894;2023-03-03T12:15:51;82668.88;;;0.53;30.71
70437;BME280;57877;39.750;-104.894;2023-03-03T12:18:23;82670.18;;;0.42;31.00
70437;BME280;57877;39.750;-104.894;2023-03-03T12:20:43;82669.28;;;0.41;31.05
70437;BME280;57877;39.750;-104.894;2023-03-03T12:23:10;82667.87;;;0.08;31.14
70437;BME280;57877;39.750;-104.894;2023-03-03T12:25:33;82674.02;;;0.16;31.15
70437;BME280;57877;39.750;-104.894;2023-03-03T12:27:57;82670.09;;;0.13;31.09
70437;BME280;57877;39.750;-104.894;2023-03-03T12:30:23;82668.52;;;0.02;31.62
70437;BME280;57877;39.750;-104.894;2023-03-03T12:32:52;82668.13;;;0.16;31.34
70437;BME280;57877;39.750;-104.894;2023-03-03T12:35:11;82665.22;;;0.21;31.33
70437;BME280;57877;39.750;-104.894;2023-03-03T12:37:44;82663.96;;;0.07;30.83
70437;BME280;57877;39.750;-104.894;2023-03-03T12:40:02;82663.06;;;0.62;30.47
70437;BME280;57877;39.750;-104.894;2023-03-03T12:42:29;82664.02;;;0.64;30.32
70437;BME280;57877;39.750;-104.894;2023-03-03T12:44:54;82665.64;;;0.59;30.26